createdAt,value
2018-08-10T00:00:19.039Z,5.40
2018-08-10T00:02:56.630Z,7.40
2018-08-10T00:05:27.384Z,7.10
2018-08-10T00:07:57.195Z,7.70
2018-08-10T00:10:36.927Z,11.43
2018-08-10T00:13:08.785Z,11.13
2018-08-10T00:15:38.399Z,6.43
2018-08-10T00:18:11.199Z,4.10
2018-08-10T00:20:41.003Z,8.10
2018-08-10T00:23:22.755Z,4.03
2018-08-10T00:25:53.507Z,10.23
2018-08-10T00:28:24.219Z,6.63
2018-08-10T00:30:55.703Z,4.30
2018-08-10T00:33:25.251Z,4.20
2018-08-10T00:36:00.183Z,3.03
2018-08-10T00:38:52.840Z,8.67
2018-08-10T00:41:28.921Z,5.33
2018-08-10T00:43:59.839Z,4.30
2018-08-10T00:46:35.519Z,5.17
2018-08-10T00:49:17.136Z,4.30
2018-08-10T00:51:51.455Z,5.53
2018-08-10T00:54:22.328Z,3.70
2018-08-10T00:56:59.503Z,6.10
2018-08-10T00:59:35.016Z,4.37
2018-08-10T01:02:04.875Z,3.83
2018-08-10T01:04:35.487Z,6.20
2018-08-10T01:07:05.415Z,5.07
2018-08-10T01:09:34.991Z,3.53
2018-08-10T01:12:16.355Z,6.53
2018-08-10T01:14:50.256Z,6.43
2018-08-10T01:17:33.948Z,3.23
2018-08-10T01:20:23.769Z,5.10
2018-08-10T01:23:01.023Z,5.17
2018-08-10T01:25:32.741Z,4.27
2018-08-10T01:28:04.272Z,5.73
2018-08-10T01:30:35.899Z,10.07
2018-08-10T01:33:07.471Z,8.67
2018-08-10T01:35:46.751Z,6.10
2018-08-10T01:38:17.564Z,10.67
2018-08-10T01:40:56.951Z,4.87
2018-08-10T01:43:26.715Z,6.93
2018-08-10T01:45:56.527Z,5.67
2018-08-10T01:48:31.923Z,4.07
2018-08-10T01:51:02.804Z,6.07
2018-08-10T01:53:34.431Z,6.70
2018-08-10T01:56:09.927Z,4.10
2018-08-10T01:58:40.723Z,4.10
2018-08-10T02:01:37.000Z,3.47
2018-08-10T02:04:07.852Z,11.07
2018-08-10T02:06:38.751Z,5.07
2018-08-10T02:09:10.555Z,9.93
2018-08-10T02:11:56.751Z,7.73
2018-08-10T02:14:34.233Z,4.73
2018-08-10T02:17:05.291Z,8.80
2018-08-10T02:19:35.067Z,3.63
2018-08-10T02:22:11.491Z,4.73
2018-08-10T02:24:48.867Z,5.57
2018-08-10T02:27:34.452Z,9.97
2018-08-10T02:30:11.568Z,9.97
2018-08-10T02:32:47.639Z,10.50
2018-08-10T02:35:24.463Z,3.50
2018-08-10T02:38:00.231Z,8.43
2018-08-10T02:40:52.643Z,4.13
2018-08-10T02:43:22.587Z,4.20
2018-08-10T02:45:52.399Z,3.67
2018-08-10T02:48:23.059Z,4.33
2018-08-10T02:50:57.263Z,3.57
2018-08-10T02:53:27.179Z,10.23
2018-08-10T02:56:09.127Z,3.20
2018-08-10T02:58:41.169Z,2.77
2018-08-10T03:01:16.444Z,3.80
2018-08-10T03:03:47.234Z,4.60
2018-08-10T03:06:23.027Z,3.47
2018-08-10T03:08:53.796Z,3.40
2018-08-10T03:11:24.411Z,2.60
2018-08-10T03:13:54.330Z,2.30
2018-08-10T03:16:35.320Z,2.17
2018-08-10T03:19:17.018Z,2.90
2018-08-10T03:21:48.761Z,2.20
2018-08-10T03:24:31.035Z,3.50
2018-08-10T03:27:03.308Z,2.23
2018-08-10T03:29:34.439Z,1.73
2018-08-10T03:32:06.439Z,2.73
2018-08-10T03:34:38.853Z,2.43
2018-08-10T03:37:13.018Z,18.20
2018-08-10T03:39:53.654Z,1.57
2018-08-10T03:42:25.590Z,1.10
2018-08-10T03:45:02.578Z,2.30
2018-08-10T03:47:33.511Z,1.83
2018-08-10T03:53:16.403Z,1.20
2018-08-10T03:55:46.398Z,1.30
2018-08-10T03:58:16.178Z,1.40
2018-08-10T04:00:47.174Z,1.17
2018-08-10T04:03:17.221Z,1.27
2018-08-10T04:05:50.218Z,1.73
2018-08-10T04:08:20.945Z,1.23
2018-08-10T04:10:50.674Z,1.20
2018-08-10T04:13:21.660Z,1.03
2018-08-10T04:15:54.846Z,1.10
2018-08-10T04:18:37.734Z,1.63
2018-08-10T04:21:08.477Z,1.17
2018-08-10T04:23:44.497Z,1.27
2018-08-10T04:26:14.194Z,1.10
2018-08-10T04:28:47.818Z,1.20
2018-08-10T04:31:24.271Z,1.00
2018-08-10T04:33:55.102Z,1.30
2018-08-10T04:36:25.722Z,1.10
2018-08-10T04:38:55.579Z,1.93
2018-08-10T04:41:33.366Z,1.00
2018-08-10T04:44:04.230Z,1.10
2018-08-10T04:46:34.086Z,1.20
2018-08-10T04:49:07.395Z,0.90
2018-08-10T04:51:36.995Z,1.03
2018-08-10T04:54:06.594Z,1.37
2018-08-10T04:56:47.414Z,1.10
2018-08-10T04:59:25.202Z,1.30
2018-08-10T05:01:56.103Z,0.90
2018-08-10T05:04:25.906Z,1.37
2018-08-10T05:06:56.738Z,1.27
2018-08-10T05:09:26.582Z,1.00
2018-08-10T05:11:57.176Z,1.03
2018-08-10T05:14:28.974Z,1.17
2018-08-10T05:17:00.834Z,1.27
2018-08-10T05:19:33.478Z,1.20
2018-08-10T05:22:02.994Z,1.20
2018-08-10T05:24:33.733Z,3.17
2018-08-10T05:27:03.666Z,1.47
2018-08-10T05:29:34.495Z,0.93
2018-08-10T05:32:08.162Z,1.50
2018-08-10T05:34:41.830Z,1.20
2018-08-10T05:37:12.990Z,1.50
2018-08-10T05:39:42.869Z,1.37
2018-08-10T05:42:12.534Z,6.27
2018-08-10T05:47:49.387Z,2.80
2018-08-10T05:50:33.846Z,1.00
2018-08-10T05:53:05.706Z,1.07
2018-08-10T05:55:35.242Z,0.90
2018-08-10T05:58:05.354Z,1.30
2018-08-10T06:00:36.961Z,1.10
2018-08-10T06:03:08.738Z,1.23
2018-08-10T06:05:58.325Z,1.37
2018-08-10T06:08:27.978Z,1.23
2018-08-10T06:11:03.290Z,1.40
2018-08-10T06:13:34.068Z,2.63
2018-08-10T06:16:05.935Z,1.10
2018-08-10T06:18:36.532Z,1.13
2018-08-10T06:21:10.398Z,1.37
2018-08-10T06:23:40.278Z,1.50
2018-08-10T06:26:09.873Z,1.03
2018-08-10T06:28:40.614Z,1.10
2018-08-10T06:31:12.230Z,1.10
2018-08-10T06:33:41.898Z,0.93
2018-08-10T06:36:11.563Z,1.73
2018-08-10T06:38:42.258Z,1.13
2018-08-10T06:41:11.835Z,1.93
2018-08-10T06:43:42.650Z,1.10
2018-08-10T06:46:14.619Z,1.00
2018-08-10T06:48:44.580Z,1.23
2018-08-10T06:51:17.901Z,2.30
2018-08-10T06:53:48.562Z,1.10
2018-08-10T06:56:20.214Z,1.13
2018-08-10T06:58:50.026Z,1.00
2018-08-10T07:01:19.881Z,1.07
2018-08-10T07:03:53.114Z,1.10
2018-08-10T07:06:23.658Z,3.30
2018-08-10T07:08:57.926Z,1.00
2018-08-10T07:11:28.518Z,2.30
2018-08-10T07:14:01.882Z,0.80
2018-08-10T07:16:31.798Z,6.80
2018-08-10T07:19:05.272Z,4.97
2018-08-10T07:21:36.831Z,0.80
2018-08-10T07:24:06.858Z,1.60
2018-08-10T07:26:38.626Z,1.10
2018-08-10T07:29:08.459Z,1.07
2018-08-10T07:31:38.325Z,1.37
2018-08-10T07:34:11.351Z,1.73
2018-08-10T07:36:41.155Z,1.00
2018-08-10T07:39:12.962Z,1.03
2018-08-10T07:41:43.841Z,0.80
2018-08-10T07:44:13.650Z,1.23
2018-08-10T07:46:59.994Z,1.90
2018-08-10T07:49:32.835Z,7.13
2018-08-10T07:52:02.653Z,0.90
2018-08-10T07:54:32.176Z,0.90
2018-08-10T07:57:06.238Z,2.20
2018-08-10T07:59:37.007Z,0.80
2018-08-10T08:02:07.776Z,0.80
2018-08-10T08:04:37.550Z,1.23
2018-08-10T08:07:07.446Z,1.13
2018-08-10T08:09:42.223Z,0.80
2018-08-10T08:12:13.027Z,3.07
2018-08-10T08:14:49.686Z,0.70
2018-08-10T08:17:21.466Z,0.80
2018-08-10T08:19:51.283Z,3.60
2018-08-10T08:22:21.847Z,0.90
2018-08-10T08:24:56.286Z,1.17
2018-08-10T08:27:26.095Z,1.00
2018-08-10T08:29:55.942Z,1.77
2018-08-10T08:32:25.867Z,3.47
2018-08-10T08:34:56.832Z,0.90
2018-08-10T08:37:32.334Z,1.07
2018-08-10T08:40:22.479Z,0.80
2018-08-10T08:43:00.619Z,1.17
2018-08-10T08:45:56.324Z,1.10
2018-08-10T08:48:35.127Z,0.90
2018-08-10T08:51:14.371Z,1.47
2018-08-10T08:53:45.143Z,4.93
2018-08-10T08:56:18.293Z,1.47
2018-08-10T08:58:51.875Z,2.10
2018-08-10T09:01:21.671Z,0.90
2018-08-10T09:05:11.782Z,4.90
2018-08-10T09:07:48.943Z,1.00
2018-08-10T09:10:19.414Z,4.63
2018-08-10T09:12:52.510Z,1.53
2018-08-10T09:15:25.542Z,0.93
2018-08-10T09:17:56.375Z,1.83
2018-08-10T09:20:26.235Z,1.20
2018-08-10T09:22:57.006Z,1.77
2018-08-10T09:25:26.794Z,7.07
2018-08-10T09:27:56.570Z,0.90
2018-08-10T09:30:26.367Z,1.03
2018-08-10T09:32:56.166Z,1.80
2018-08-10T09:35:26.706Z,1.17
2018-08-10T09:37:57.451Z,1.17
2018-08-10T09:40:29.302Z,1.10
2018-08-10T09:43:00.099Z,2.10
2018-08-10T09:45:29.922Z,0.77
2018-08-10T09:47:59.430Z,4.83
2018-08-10T09:50:32.627Z,1.43
2018-08-10T09:53:03.943Z,1.23
2018-08-10T09:55:35.481Z,2.87
2018-08-10T09:58:08.150Z,1.80
2018-08-10T10:00:47.734Z,2.80
2018-08-10T10:03:24.927Z,7.83
2018-08-10T10:06:01.238Z,3.27
2018-08-10T10:08:31.781Z,1.07
2018-08-10T10:11:03.282Z,0.73
2018-08-10T10:13:32.754Z,0.80
2018-08-10T10:16:03.434Z,0.90
2018-08-10T10:18:32.986Z,1.47
2018-08-10T10:21:10.203Z,2.87
2018-08-10T10:23:39.918Z,3.37
2018-08-10T10:26:09.798Z,2.07
2018-08-10T10:28:40.401Z,1.43
2018-08-10T10:31:13.529Z,1.30
2018-08-10T10:33:43.358Z,1.20
2018-08-10T10:36:13.134Z,0.80
2018-08-10T10:38:42.834Z,0.90
2018-08-10T10:41:13.626Z,5.03
2018-08-10T10:43:47.790Z,0.80
2018-08-10T10:46:17.638Z,1.73
2018-08-10T10:48:47.422Z,1.00
2018-08-10T10:51:22.650Z,1.93
2018-08-10T10:53:59.150Z,2.23
2018-08-10T10:56:32.573Z,2.20
2018-08-10T10:59:10.118Z,0.80
2018-08-10T11:01:41.789Z,1.77
2018-08-10T11:04:12.854Z,1.13
2018-08-10T11:06:42.650Z,3.10
2018-08-10T11:09:12.438Z,2.60
2018-08-10T11:11:43.154Z,6.97
2018-08-10T11:14:18.153Z,6.20
2018-08-10T11:16:47.710Z,1.23
2018-08-10T11:19:19.530Z,0.90
2018-08-10T11:21:49.110Z,1.73
2018-08-10T11:24:19.630Z,2.17
2018-08-10T11:26:51.165Z,1.13
2018-08-10T11:29:20.886Z,0.90
2018-08-10T11:31:53.268Z,0.70
2018-08-10T11:34:23.098Z,1.23
2018-08-10T11:36:52.988Z,1.33
2018-08-10T11:39:23.827Z,1.07
2018-08-10T11:41:53.625Z,11.13
2018-08-10T11:44:23.417Z,7.60
2018-08-10T11:46:53.294Z,1.13
2018-08-10T11:49:23.098Z,2.00
2018-08-10T11:51:52.789Z,0.80
2018-08-10T11:54:24.274Z,1.10
2018-08-10T11:56:55.006Z,1.07
2018-08-10T11:59:24.893Z,4.13
2018-08-10T12:01:54.762Z,3.43
2018-08-10T12:04:26.672Z,1.53
2018-08-10T12:07:02.236Z,0.70
2018-08-10T12:09:32.784Z,1.50
2018-08-10T12:12:02.565Z,1.63
2018-08-10T12:14:32.113Z,1.67
2018-08-10T12:17:07.502Z,6.00
2018-08-10T12:19:37.418Z,4.80
2018-08-10T12:22:07.305Z,2.30
2018-08-10T12:24:37.355Z,1.63
2018-08-10T12:27:08.113Z,2.00
2018-08-10T12:29:37.933Z,6.50
2018-08-10T12:32:07.718Z,2.20
2018-08-10T12:34:37.309Z,6.50
2018-08-10T12:37:07.537Z,2.90
2018-08-10T12:39:37.349Z,0.70
2018-08-10T12:42:07.165Z,1.57
2018-08-10T12:44:37.949Z,0.83
2018-08-10T12:47:07.761Z,1.37
2018-08-10T12:49:37.557Z,8.10
2018-08-10T12:52:07.421Z,7.43
2018-08-10T12:54:37.305Z,1.57
2018-08-10T12:57:07.202Z,0.80
2018-08-10T12:59:37.965Z,6.13
2018-08-10T13:02:13.689Z,1.23
2018-08-10T13:04:43.491Z,0.97
2018-08-10T13:07:14.085Z,0.73
2018-08-10T13:09:43.845Z,2.20
2018-08-10T13:12:14.662Z,1.60
2018-08-10T13:14:46.472Z,0.87
2018-08-10T13:17:16.361Z,2.90
2018-08-10T13:19:45.849Z,1.93
2018-08-10T13:22:15.541Z,6.03
2018-08-10T13:24:48.985Z,3.63
2018-08-10T13:27:18.721Z,4.00
2018-08-10T13:29:50.481Z,2.83
2018-08-10T13:32:21.308Z,0.80
2018-08-10T13:34:50.965Z,1.27
2018-08-10T13:37:20.513Z,0.80
2018-08-10T13:39:50.006Z,0.80
2018-08-10T13:42:23.166Z,0.70
2018-08-10T13:44:55.033Z,0.90
2018-08-10T13:47:24.725Z,1.27
2018-08-10T13:49:58.189Z,2.20
2018-08-10T13:52:31.673Z,0.90
2018-08-10T13:55:03.385Z,0.80
2018-08-10T13:57:32.817Z,1.10
2018-08-10T14:00:05.626Z,0.90
2018-08-10T14:02:37.525Z,2.50
2018-08-10T14:05:07.433Z,0.63
2018-08-10T14:07:37.242Z,1.10
2018-08-10T14:10:07.177Z,0.80
2018-08-10T14:12:38.005Z,1.10
2018-08-10T14:15:08.813Z,0.77
2018-08-10T14:17:38.617Z,1.70
2018-08-10T14:20:09.503Z,7.97
2018-08-10T14:22:39.381Z,3.87
2018-08-10T14:25:10.685Z,6.83
2018-08-10T14:27:41.529Z,2.67
2018-08-10T14:30:16.025Z,1.40
2018-08-10T14:32:45.825Z,0.80
2018-08-10T14:35:30.337Z,8.30
2018-08-10T14:38:00.023Z,1.47
2018-08-10T14:40:29.881Z,1.00
2018-08-10T14:42:59.641Z,6.53
2018-08-10T14:45:31.505Z,4.17
2018-08-10T14:48:01.297Z,0.70
2018-08-10T14:50:30.839Z,0.80
2018-08-10T14:53:01.510Z,0.90
2018-08-10T14:55:31.091Z,0.80
2018-08-10T14:58:00.889Z,0.90
2018-08-10T15:00:30.619Z,7.03
2018-08-10T15:03:00.245Z,3.30
2018-08-10T15:05:30.013Z,1.50
2018-08-10T15:07:59.897Z,1.30
2018-08-10T15:10:29.654Z,0.70
2018-08-10T15:12:59.438Z,2.60
2018-08-10T15:15:30.625Z,1.30
2018-08-10T15:18:00.325Z,3.30
2018-08-10T15:20:29.927Z,1.20
2018-08-10T15:23:18.097Z,3.50
2018-08-10T15:25:49.858Z,0.73
2018-08-10T15:28:27.749Z,0.93
2018-08-10T15:30:58.289Z,1.03
2018-08-10T15:33:30.018Z,1.00
2018-08-10T15:35:59.793Z,1.00
2018-08-10T15:38:30.636Z,2.20
2018-08-10T15:41:01.337Z,1.17
2018-08-10T15:43:30.882Z,0.80
2018-08-10T15:46:00.325Z,0.70
2018-08-10T15:48:31.029Z,3.70
2018-08-10T15:51:02.824Z,0.70
2018-08-10T15:53:43.621Z,1.47
2018-08-10T15:56:14.167Z,0.70
2018-08-10T15:58:43.857Z,0.70
2018-08-10T16:01:18.905Z,1.00
2018-08-10T16:03:50.509Z,0.60
2018-08-10T16:06:24.766Z,0.70
2018-08-10T16:08:54.673Z,3.10
2018-08-10T16:11:24.445Z,0.83
2018-08-10T16:13:54.323Z,1.17
2018-08-10T16:16:29.805Z,6.20
2018-08-10T16:19:04.262Z,0.80
2018-08-10T16:21:36.037Z,4.80
2018-08-10T16:24:12.947Z,1.63
2018-08-10T16:26:48.613Z,1.17
2018-08-10T16:29:18.366Z,1.77
2018-08-10T16:31:51.945Z,1.30
2018-08-10T16:34:26.353Z,1.53
2018-08-10T16:36:56.988Z,0.90
2018-08-10T16:39:33.506Z,2.03
2018-08-10T16:42:04.321Z,1.47
2018-08-10T16:44:35.729Z,2.13
2018-08-10T16:47:09.377Z,1.83
2018-08-10T16:49:42.457Z,1.50
2018-08-10T16:52:16.389Z,1.57
2018-08-10T16:54:46.285Z,7.60
2018-08-10T16:57:23.665Z,5.83
2018-08-10T16:59:53.209Z,3.83
2018-08-10T17:02:23.022Z,1.00
2018-08-10T17:04:54.854Z,1.60
2018-08-10T17:07:24.385Z,0.83
2018-08-10T17:09:55.105Z,1.00
2018-08-10T17:12:28.473Z,1.43
2018-08-10T17:15:03.401Z,4.20
2018-08-10T17:17:35.082Z,4.43
2018-08-10T17:20:05.293Z,1.27
2018-08-10T17:22:36.133Z,1.93
2018-08-10T17:25:08.524Z,1.33
2018-08-10T17:27:38.117Z,1.40
2018-08-10T17:30:10.785Z,1.40
2018-08-10T17:32:40.391Z,1.20
2018-08-10T17:35:12.751Z,1.00
2018-08-10T17:37:47.212Z,3.47
2018-08-10T17:40:17.736Z,1.80
2018-08-10T17:42:48.464Z,1.53
2018-08-10T17:45:18.375Z,1.63
2018-08-10T17:47:54.968Z,3.43
2018-08-10T17:50:30.292Z,1.40
2018-08-10T17:53:04.265Z,3.07
2018-08-10T17:55:41.249Z,3.10
2018-08-10T17:58:16.800Z,3.77
2018-08-10T18:00:48.348Z,2.13
2018-08-10T18:03:20.904Z,3.07
2018-08-10T18:05:58.268Z,2.30
2018-08-10T18:08:30.033Z,1.43
2018-08-10T18:11:03.279Z,1.33
2018-08-10T18:13:38.356Z,1.40
2018-08-10T18:16:14.802Z,3.83
2018-08-10T18:18:44.400Z,2.00
2018-08-10T18:21:17.987Z,1.40
2018-08-10T18:23:48.776Z,1.63
2018-08-10T18:26:20.509Z,1.57
2018-08-10T18:29:01.905Z,2.30
2018-08-10T18:31:38.020Z,2.97
2018-08-10T18:34:09.855Z,1.20
2018-08-10T18:36:39.528Z,1.53
2018-08-10T18:39:16.293Z,1.17
2018-08-10T18:41:50.725Z,1.30
2018-08-10T18:44:21.548Z,1.50
2018-08-10T18:46:51.237Z,1.40
2018-08-10T18:49:22.824Z,3.33
2018-08-10T18:51:57.653Z,1.10
2018-08-10T18:54:28.485Z,1.27
2018-08-10T18:57:00.480Z,4.27
2018-08-10T18:59:30.236Z,1.50
2018-08-10T19:02:01.118Z,2.63
2018-08-10T19:04:30.717Z,1.50
2018-08-10T19:07:00.529Z,6.10
2018-08-10T19:09:30.180Z,4.00
2018-08-10T19:12:00.703Z,1.30
2018-08-10T19:14:30.225Z,2.33
2018-08-10T19:17:00.121Z,2.27
2018-08-10T19:19:33.460Z,2.10
2018-08-10T19:22:06.352Z,1.97
2018-08-10T19:24:36.048Z,3.50
2018-08-10T19:27:07.799Z,1.30
2018-08-10T19:29:39.652Z,4.13
2018-08-10T19:32:09.564Z,1.40
2018-08-10T19:34:40.168Z,1.70
2018-08-10T19:37:10.729Z,1.30
2018-08-10T19:39:40.384Z,1.60
2018-08-10T19:42:14.140Z,4.73
2018-08-10T19:44:45.909Z,4.70
2018-08-10T19:47:18.916Z,1.83
2018-08-10T19:49:49.676Z,4.90
2018-08-10T19:52:19.414Z,2.83
2018-08-10T19:54:50.402Z,1.43
2018-08-10T19:57:22.484Z,2.67
2018-08-10T19:59:52.420Z,2.00
2018-08-10T20:02:29.656Z,3.03
2018-08-10T20:04:59.488Z,2.20
2018-08-10T20:07:30.508Z,2.10
2018-08-10T20:10:02.508Z,16.93
2018-08-10T20:12:32.395Z,2.20
2018-08-10T20:15:03.411Z,1.83
2018-08-10T20:17:35.616Z,1.83
2018-08-10T20:20:08.380Z,2.23
2018-08-10T20:22:39.505Z,3.20
2018-08-10T20:25:13.747Z,2.23
2018-08-10T20:27:48.790Z,2.40
2018-08-10T20:30:20.932Z,2.07
2018-08-10T20:32:58.903Z,2.20
2018-08-10T20:35:29.651Z,1.93
2018-08-10T20:38:01.609Z,2.33
2018-08-10T20:40:40.747Z,3.23
2018-08-10T20:43:11.689Z,3.40
2018-08-10T20:45:46.157Z,6.50
2018-08-10T20:48:17.289Z,5.77
2018-08-10T20:51:08.729Z,2.13
2018-08-10T20:53:54.544Z,3.03
2018-08-10T20:56:28.916Z,2.00
2018-08-10T20:58:59.932Z,1.93
2018-08-10T21:01:29.713Z,2.10
2018-08-10T21:04:12.533Z,2.23
2018-08-10T21:06:44.280Z,2.00
2018-08-10T21:09:17.112Z,5.63
2018-08-10T21:11:48.168Z,2.73
2018-08-10T21:14:18.676Z,2.00
2018-08-10T21:16:49.348Z,3.30
2018-08-10T21:19:19.980Z,2.33
2018-08-10T21:21:51.929Z,3.87
2018-08-10T21:24:23.589Z,3.17
2018-08-10T21:27:01.073Z,3.90
2018-08-10T21:29:30.786Z,2.30
2018-08-10T21:32:01.657Z,2.93
2018-08-10T21:34:35.512Z,2.50
2018-08-10T21:39:50.249Z,2.93
2018-08-10T21:42:27.648Z,3.00
2018-08-10T21:45:08.152Z,8.60
2018-08-10T21:47:38.736Z,3.60
2018-08-10T21:50:11.411Z,4.57
2018-08-10T21:52:43.892Z,4.83
2018-08-10T21:55:13.648Z,5.10
2018-08-10T21:57:49.097Z,3.80
2018-08-10T22:01:04.693Z,4.00
2018-08-10T22:03:38.508Z,3.40
2018-08-10T22:06:08.560Z,5.70
2018-08-10T22:08:40.545Z,5.70
2018-08-10T22:11:12.350Z,5.20
2018-08-10T22:13:50.673Z,4.60
2018-08-10T22:16:27.833Z,4.53
2018-08-10T22:19:07.493Z,4.63
2018-08-10T22:21:37.585Z,4.70
2018-08-10T22:24:07.640Z,5.60
2018-08-10T22:26:38.448Z,8.00
2018-08-10T22:29:09.445Z,5.90
2018-08-10T22:31:40.620Z,7.83
2018-08-10T22:34:13.908Z,6.07
2018-08-10T22:36:43.756Z,6.27
2018-08-10T22:39:15.424Z,13.60
2018-08-10T22:41:48.500Z,13.20
2018-08-10T22:44:23.400Z,7.07
2018-08-10T22:46:54.748Z,8.13
2018-08-10T22:49:24.824Z,7.40
2018-08-10T22:51:54.892Z,8.47
2018-08-10T22:54:26.025Z,8.27
2018-08-10T22:56:56.040Z,9.53
2018-08-10T22:59:27.816Z,11.60
2018-08-10T23:01:58.805Z,11.03
2018-08-10T23:04:29.964Z,10.83
2018-08-10T23:07:01.992Z,11.53
2018-08-10T23:09:34.028Z,10.70
2018-08-10T23:12:03.736Z,11.37
2018-08-10T23:14:35.844Z,17.10
2018-08-10T23:17:08.784Z,14.10
2018-08-10T23:19:39.741Z,13.60
2018-08-10T23:22:13.424Z,14.87
2018-08-10T23:24:53.336Z,11.80
2018-08-10T23:27:29.035Z,11.83
2018-08-10T23:29:58.627Z,12.90
2018-08-10T23:32:32.675Z,13.37
2018-08-10T23:35:02.699Z,12.67
2018-08-10T23:37:33.475Z,13.83
2018-08-10T23:40:13.031Z,13.30
2018-08-10T23:42:43.441Z,11.63
2018-08-10T23:45:15.796Z,14.00
2018-08-10T23:47:45.779Z,13.67
2018-08-10T23:50:17.047Z,30.47
2018-08-10T23:52:47.075Z,18.63
2018-08-10T23:55:21.259Z,15.27
2018-08-10T23:57:51.726Z,16.40
